createdAt,value
2019-02-02T00:03:08.669Z,48.73
2019-02-02T00:08:14.282Z,55.40
2019-02-02T00:13:21.099Z,54.23
2019-02-02T00:18:27.062Z,53.60
2019-02-02T00:23:32.629Z,53.63
2019-02-02T00:28:38.230Z,51.37
2019-02-02T00:33:45.842Z,55.07
2019-02-02T00:38:51.652Z,58.00
2019-02-02T00:43:57.639Z,61.83
2019-02-02T00:49:03.335Z,56.97
2019-02-02T00:54:08.942Z,66.07
2019-02-02T00:59:14.836Z,58.43
2019-02-02T01:04:20.403Z,53.07
2019-02-02T01:09:26.583Z,59.87
2019-02-02T01:14:33.233Z,65.43
2019-02-02T01:19:39.119Z,49.57
2019-02-02T01:24:45.298Z,62.57
2019-02-02T01:29:50.883Z,58.67
2019-02-02T01:34:56.472Z,59.70
2019-02-02T01:40:02.224Z,60.97
2019-02-02T01:45:11.804Z,58.00
2019-02-02T01:50:19.277Z,54.37
2019-02-02T01:55:25.305Z,64.37
2019-02-02T02:00:32.331Z,60.83
2019-02-02T02:05:37.978Z,67.37
2019-02-02T02:10:43.644Z,57.90
2019-02-02T02:15:49.691Z,61.10
2019-02-02T02:20:55.443Z,57.40
2019-02-02T02:26:04.770Z,49.53
2019-02-02T02:31:10.393Z,57.30
2019-02-02T02:36:17.585Z,50.93
2019-02-02T02:41:23.181Z,58.60
2019-02-02T02:46:28.821Z,64.93
2019-02-02T02:51:34.955Z,64.63
2019-02-02T02:56:40.575Z,70.10
2019-02-02T03:01:46.257Z,74.33
2019-02-02T03:06:51.845Z,72.10
2019-02-02T03:11:57.537Z,78.73
2019-02-02T03:17:04.638Z,65.73
2019-02-02T03:22:10.282Z,68.90
2019-02-02T03:27:15.954Z,67.87
2019-02-02T03:32:21.544Z,72.83
2019-02-02T03:37:27.216Z,58.37
2019-02-02T03:42:33.024Z,80.63
2019-02-02T03:47:38.739Z,64.73
2019-02-02T03:52:44.475Z,66.70
2019-02-02T03:57:50.601Z,67.77
2019-02-02T04:02:56.880Z,61.17
2019-02-02T04:08:04.014Z,62.70
2019-02-02T04:13:10.451Z,62.40
2019-02-02T04:18:17.057Z,79.07
2019-02-02T04:23:23.126Z,77.27
2019-02-02T04:28:28.711Z,70.30
2019-02-02T04:33:34.297Z,66.40
2019-02-02T04:38:43.882Z,59.90
2019-02-02T04:43:49.874Z,68.83
2019-02-02T04:48:55.444Z,66.73
2019-02-02T04:54:01.421Z,60.83
2019-02-02T04:59:07.045Z,66.03
2019-02-02T05:04:12.646Z,66.00
2019-02-02T05:09:18.153Z,76.20
2019-02-02T05:14:23.786Z,70.17
2019-02-02T05:19:29.562Z,65.80
2019-02-02T05:24:35.202Z,63.83
2019-02-02T05:29:41.836Z,75.17
2019-02-02T05:34:47.531Z,72.40
2019-02-02T05:39:53.147Z,78.97
2019-02-02T05:44:59.133Z,71.00
2019-02-02T05:50:05.432Z,81.33
2019-02-02T05:55:13.988Z,74.80
2019-02-02T06:00:28.279Z,75.40
2019-02-02T06:05:33.906Z,73.97
2019-02-02T06:10:39.464Z,67.63
2019-02-02T06:15:45.873Z,66.70
2019-02-02T06:20:51.745Z,74.17
2019-02-02T06:25:57.638Z,56.07
2019-02-02T06:31:06.195Z,70.20
2019-02-02T06:36:13.135Z,70.27
2019-02-02T06:41:19.312Z,71.77
2019-02-02T06:46:25.406Z,67.47
2019-02-02T06:51:30.997Z,69.63
2019-02-02T06:56:36.611Z,68.63
2019-02-02T07:01:42.206Z,62.30
2019-02-02T07:06:48.110Z,64.07
2019-02-02T07:11:53.724Z,70.43
2019-02-02T07:16:59.311Z,61.60
2019-02-02T07:22:08.409Z,65.37
2019-02-02T07:27:14.084Z,65.33
2019-02-02T07:32:19.762Z,61.77
2019-02-02T07:37:25.414Z,65.10
2019-02-02T07:42:31.019Z,60.53
2019-02-02T07:47:36.587Z,65.13
2019-02-02T07:52:43.224Z,71.50
2019-02-02T07:57:48.899Z,77.53
2019-02-02T08:02:55.059Z,61.30
2019-02-02T08:08:00.699Z,67.33
2019-02-02T08:13:07.399Z,68.87
2019-02-02T08:18:12.998Z,66.00
2019-02-02T08:23:18.900Z,69.27
2019-02-02T08:28:27.585Z,57.60
2019-02-02T08:33:33.544Z,70.73
2019-02-02T08:38:39.587Z,64.37
2019-02-02T08:43:45.221Z,70.10
2019-02-02T08:48:51.014Z,71.13
2019-02-02T08:53:58.892Z,70.20
2019-02-02T08:59:07.884Z,71.37
2019-02-02T09:04:13.793Z,62.20
2019-02-02T09:09:19.618Z,72.23
2019-02-02T09:14:25.314Z,64.63
2019-02-02T09:19:31.054Z,68.53
2019-02-02T09:24:37.111Z,86.40
2019-02-02T09:29:42.792Z,67.97
2019-02-02T09:34:49.274Z,73.63
2019-02-02T09:39:55.125Z,73.47
2019-02-02T09:45:01.650Z,75.13
2019-02-02T09:50:09.631Z,82.30
2019-02-02T09:55:17.159Z,91.10
2019-02-02T10:00:25.117Z,95.97
2019-02-02T10:05:31.728Z,95.23
2019-02-02T10:10:37.333Z,87.17
2019-02-02T10:15:43.096Z,94.43
2019-02-02T10:20:48.814Z,90.67
2019-02-02T10:25:56.044Z,101.33
2019-02-02T10:31:01.830Z,82.73
2019-02-02T10:36:09.541Z,81.77
2019-02-02T10:41:15.839Z,88.90
2019-02-02T10:46:21.517Z,96.97
2019-02-02T10:51:27.209Z,95.23
2019-02-02T10:56:32.885Z,84.63
2019-02-02T11:01:50.430Z,96.47
2019-02-02T11:06:47.047Z,93.00
2019-02-02T11:11:52.861Z,92.37
2019-02-02T11:16:59.532Z,92.93
2019-02-02T11:22:05.589Z,86.67
2019-02-02T11:27:12.684Z,80.40
2019-02-02T11:32:18.390Z,85.40
2019-02-02T11:37:24.124Z,79.07
2019-02-02T11:42:31.275Z,85.53
2019-02-02T11:47:39.187Z,76.43
2019-02-02T11:52:44.942Z,79.80
2019-02-02T11:57:50.989Z,63.20
2019-02-02T12:02:57.287Z,68.97
2019-02-02T12:08:04.090Z,69.87
2019-02-02T12:13:11.511Z,72.43
2019-02-02T12:18:17.328Z,61.53
2019-02-02T12:23:23.619Z,59.00
2019-02-02T12:28:29.886Z,64.00
2019-02-02T12:33:36.023Z,66.27
2019-02-02T12:38:42.828Z,62.93
2019-02-02T12:43:48.627Z,67.67
2019-02-02T12:48:55.795Z,65.63
2019-02-02T12:54:01.712Z,71.17
2019-02-02T12:59:07.753Z,67.23
2019-02-02T13:04:16.379Z,68.03
2019-02-02T13:09:22.278Z,77.90
2019-02-02T13:14:27.986Z,63.80
2019-02-02T13:19:35.202Z,70.57
2019-02-02T13:24:41.742Z,66.17
2019-02-02T13:29:48.077Z,71.37
2019-02-02T13:34:56.829Z,66.60
2019-02-02T13:40:03.754Z,62.33
2019-02-02T13:45:10.723Z,70.53
2019-02-02T13:50:17.908Z,68.00
2019-02-02T13:55:23.764Z,71.57
2019-02-02T14:00:31.113Z,70.53
2019-02-02T14:05:37.150Z,70.10
2019-02-02T14:10:43.316Z,64.50
2019-02-02T14:15:55.182Z,59.30
2019-02-02T14:21:13.215Z,63.37
2019-02-02T14:26:20.980Z,58.20
2019-02-02T14:31:27.477Z,49.77
2019-02-02T14:36:33.278Z,57.47
2019-02-02T14:41:39.539Z,52.00
2019-02-02T14:46:46.859Z,53.00
2019-02-02T14:51:53.200Z,55.70
2019-02-02T14:56:59.936Z,40.70
2019-02-02T15:02:07.276Z,52.43
2019-02-02T15:07:19.523Z,49.13
2019-02-02T15:12:26.372Z,57.40
2019-02-02T15:17:32.539Z,56.40
2019-02-02T15:22:45.038Z,54.50
2019-02-02T15:27:51.085Z,58.47
2019-02-02T15:32:57.388Z,57.20
2019-02-02T15:38:03.248Z,56.60
2019-02-02T15:43:09.405Z,47.27
2019-02-02T15:48:16.555Z,54.23
2019-02-02T15:53:22.326Z,56.13
2019-02-02T15:58:28.465Z,56.17
2019-02-02T16:03:34.290Z,55.20
2019-02-02T16:08:41.002Z,62.03
2019-02-02T16:13:46.909Z,76.17
2019-02-02T16:18:53.072Z,73.93
2019-02-02T16:23:58.935Z,62.70
2019-02-02T16:29:06.601Z,67.70
2019-02-02T16:34:12.595Z,60.10
2019-02-02T16:39:19.408Z,62.83
2019-02-02T16:44:26.332Z,59.30
2019-02-02T16:49:32.140Z,63.10
2019-02-02T16:54:37.893Z,73.47
2019-02-02T16:59:43.719Z,69.57
2019-02-02T17:04:49.980Z,65.13
2019-02-02T17:09:56.868Z,67.97
2019-02-02T17:15:02.746Z,64.03
2019-02-02T17:20:12.479Z,54.93
2019-02-02T17:25:22.692Z,55.97
2019-02-02T17:30:30.684Z,60.90
2019-02-02T17:35:38.873Z,60.97
2019-02-02T17:40:44.956Z,65.50
2019-02-02T17:45:51.436Z,63.67
2019-02-02T17:50:57.448Z,57.50
2019-02-02T17:56:04.549Z,70.67
2019-02-02T18:01:15.754Z,66.43
2019-02-02T18:06:24.140Z,84.83
2019-02-02T18:11:33.798Z,74.47
2019-02-02T18:16:43.086Z,71.13
2019-02-02T18:21:50.790Z,73.17
2019-02-02T18:26:56.782Z,61.70
2019-02-02T18:32:12.731Z,67.50
2019-02-02T18:37:13.448Z,62.13
2019-02-02T18:42:21.707Z,71.27
2019-02-02T18:47:32.328Z,67.83
2019-02-02T18:52:41.393Z,67.97
2019-02-02T18:57:51.214Z,72.13
2019-02-02T19:03:00.128Z,74.47
2019-02-02T19:08:11.012Z,71.20
2019-02-02T19:13:19.658Z,95.67
2019-02-02T19:18:26.495Z,79.70
2019-02-02T19:23:34.712Z,77.00
2019-02-02T19:28:41.797Z,91.97
2019-02-02T19:33:49.032Z,86.83
2019-02-02T19:38:58.463Z,90.37
2019-02-02T19:44:04.553Z,87.47
2019-02-02T19:49:11.044Z,87.00
2019-02-02T19:54:19.005Z,83.90
2019-02-02T19:59:27.692Z,82.10
2019-02-02T20:04:35.920Z,74.80
2019-02-02T20:09:51.621Z,112.30
2019-02-02T20:15:00.996Z,116.93
2019-02-02T20:20:13.805Z,103.60
2019-02-02T20:25:25.055Z,79.50
2019-02-02T20:30:34.063Z,73.07
2019-02-02T20:35:42.418Z,90.17
2019-02-02T20:40:54.188Z,78.97
2019-02-02T20:46:01.167Z,87.90
2019-02-02T20:51:29.517Z,78.83
2019-02-02T20:56:35.999Z,85.47
2019-02-02T21:08:18.592Z,83.43
2019-02-02T21:13:28.223Z,78.93
2019-02-02T21:18:37.310Z,91.67
2019-02-02T21:23:43.299Z,96.67
2019-02-02T21:28:50.877Z,93.90
2019-02-02T21:33:59.801Z,93.77
2019-02-02T21:39:08.815Z,99.87
2019-02-02T21:44:20.440Z,91.87
2019-02-02T21:49:26.947Z,94.00
2019-02-02T21:54:32.824Z,75.17
2019-02-02T21:59:39.060Z,96.83
2019-02-02T22:04:46.008Z,84.10
2019-02-02T22:09:54.179Z,71.60
2019-02-02T22:15:02.721Z,68.17
2019-02-02T22:20:10.435Z,70.83
2019-02-02T22:25:22.298Z,61.60
2019-02-02T22:30:33.426Z,70.80
2019-02-02T22:35:39.623Z,72.93
2019-02-02T22:40:45.976Z,65.63
2019-02-02T22:45:52.845Z,64.67
2019-02-02T22:50:59.134Z,74.40
2019-02-02T22:56:06.725Z,76.30
2019-02-02T23:01:37.885Z,74.63
2019-02-02T23:07:22.500Z,74.00
2019-02-02T23:12:40.835Z,62.23
2019-02-02T23:17:47.034Z,74.50
2019-02-02T23:22:56.125Z,70.30
2019-02-02T23:28:02.061Z,69.23
2019-02-02T23:33:08.144Z,70.53
2019-02-02T23:38:14.284Z,79.47
2019-02-02T23:43:21.362Z,68.97
2019-02-02T23:53:50.389Z,84.30
2019-02-02T23:58:56.058Z,76.70
